Greyhound Lines for Mac's Sidewinder

Mac's Sidewinder (Littermates)
BdM4/21/2017FLYING COAL CITY - MAC'S MARIPOSA
Owned by mc millon p and runs for the win city racing

Print Chart

Track Race Date Dist.   Track
Cond
Wt. Post Off Call1 Bye1 Call2 Bye2 Fin. Fin.
Bye
  Fav. Odds Grd Comments
OP 5/29/2020E-08 550 31.81 F 75.5 2 3 7 7 7 OOP 3.10 D Pulled Up
OP 5/24/2020A-13 550 31.21 F 76 8 1 2 3 2 11.5 32.01 4.40 D Gave Chase Inside
OP 5/20/2020E-05 550 31.49 F 76 3 2 5 6 6 10 32.18 11.10 C Early Try, Faded Mid
OP 5/14/2020S-19 550 31.52 F 76 6 1 1 1 2 3 7 32.00 ----- Scl Set The Pace Inside
OP 3/12/2020E-08 550 31.30 F 73 4 7 8 8 8 10.5 32.02 13.30 C Outrushed Early Insd
OP 3/7/2020A-06 550 31.86 F 73 8 5 1 3 1 1 1 1 31.86 9.60 D Held Stubbornly Insd
OP 3/2/2020E-02 550 31.46 F 73 2 5 5 7 8 11.5 32.28 22.20 C Bumped 1st Tn Inside
OP 2/27/2020E-05 550 31.47 F 73 7 4 4 6 6 16 32.59 16.60 C Lost Ground Inside
OP 2/22/2020E-02 550 31.28 F 73 1 3 3 3 3 7 31.77 8.80 C Solid Bid Midtrack
OP 2/19/2020E-06 550 31.46 F 72 4 6 6 7 6 12.5 32.35 24.40 C Never Figured Mdtrk
OP 2/15/2020A-04 550 31.31 F 72.5 2 1 1 1 1 2 1 hd 31.31 10.90 D Determined Winner Mt
OP 2/9/2020A-13 550 31.00 F 72 1 3 4 7 7 22.5 32.57 11.40 D Bmpd 1st Tn Midtrack
OP 2/1/2020A-02 550 31.26 F 72.5 3 8 6 8 8 10.5 32.01 20.20 D Never A Threat Insd
OP 1/26/2020A-10 550 31.04 F 73 7 2 1 1 2 3 6.5 31.51 13.30 D Always In It Inside
OP 1/20/2020E-01 550 31.09 F 73.5 7 8 8 8 8 11 31.87 10.10 D Bumped 1st Tn Inside
OP 1/15/2020E-03 550 30.78 F 73 5 3 3 3 3 7.5 31.30 14.40 D Solid Bid Inside
OP 1/9/2020E-13 550 30.81 F 73.5 5 1 1 1 3 4 7.5 31.35 21.10 D Early Ldr, Caught In
OP 1/4/2020A-13 550 31.35 F 73.5 8 3 4 7 7 13.5 32.31 16.60 D Bumped Early & 1st
OP 12/29/2019A-13 550 30.99 F 73 2 1 2 5 6 12.5 31.88 10.10 D Early Bid, Outgamed
OP 12/22/2019A-13 550 31.59 S 72.5 1 3 2 4 4 8.5 32.17 7.70 D In The Mix Late Mid
OP 12/18/2019E-03 550 31.29 F 71.5 8 1 2 2 3 3 31.50 12.20 D Always In It Inside
OP 12/13/2019E-03 550 31.08 F 71.5 4 4 3 3 4 11.5 31.89 11.40 D Bmpd Erly & 1st Mdtk
OP 12/8/2019A-13 550 31.43 F 71.5 1 2 4 7 8 10.5 32.15 10.10 D Losing Ground Rail
OP 12/5/2019S-08 550 31.92 F 71.5 8 4 2 2 4 .5 31.96 ----- Scl Always In It Inside
OP 9/30/2019S-08 550 31.22 F 70 1 2 5 5 5 OOP ----- Scl Trailed
OP 9/26/2019S-06 550 30.75 F 69 5 2 5 7 7 OOP ----- Scl Pulled Up
OP 9/23/2019S-08 550 31.77 F 70 1 3 5 7 7 OOP ----- Scl Lost Energy Far Turn
OP 9/11/2019A-04 550 30.70 F 73 7 7 8 8 8 15.5 31.78 4.50 D Posed No Real Threat
OP 9/2/2019A-11 550 31.60 F 74 7 7 5 5 5 5.5 31.97 10.10 D Improved Little Insd
OP 8/28/2019E-06 550 30.68 F 74 2 5 6 7 7 15.5 31.76 5.50 D Outrushed Early Insd
OP 8/23/2019E-08 550 30.95 F 73 7 5 5 6 6 10.5 31.70 6.10 C Trbl Thruout Inside
OP 8/19/2019S-07 550 31.19 F 73 8 4 2 2 2 6 31.61 ----- Scl Strong Bid Inside
OP 8/15/2019S-04 550 31.12 F 74 4 4 5 6 5 14.5 32.12 ----- Scl Early Try, Outdueled
OP 6/15/2019E-09 660 37.46 F 75 5 3 8 8 8 OOP 10.10 C Pulled Up
OP 6/10/2019E-05 660 37.93 F 75 3 5 7 8 8 19 39.26 * 3.30 C Bumped Early Inside
OP 6/5/2019E-04 660 38.32 F 74 2 3 2 2 2 1.5 38.43 4.30 C Strong Bid Midtrack
OP 6/1/2019E-05 660 38.26 F 75 2 2 1 2.5 1 1.5 2 1 38.32 9.40 C Could Not Hold Lead
OP 5/29/2019E-05 660 38.41 F 74.5 3 2 1 1 1 1 2 1.5 38.51 7.70 C Came Up Short Inside
OP 5/24/2019E-14 660 38.41 F 74 2 4 1 1 1 3 1 2 38.41 12.00 D Secured Victory Insd
OP 5/20/2019E-02 660 38.22 F 74.5 5 1 2 2 4 6.5 38.69 8.50 D Erly Bid, Wknd Insd
OP 5/17/2019E-14 660 38.39 F 75 6 2 2 3 5 3.5 38.64 8.80 D Gradual Decline Insd
OP 5/12/2019A-14 550 31.18 F 76 1 2 2 3 3 4.5 31.48 8.80 D Good Attempt Inside
OP 5/8/2019E-01 550 31.37 F 75 2 5 7 7 7 7.5 31.90 7.70 D Bumped Early Mdtrk
OP 5/4/2019A-04 550 31.24 F 75 3 8 7 7 7 8 31.80 5.50 D Slow Break Inside
OP 4/29/2019S-09 550 31.46 F 75 6 1 1 3 1 1 1 2.5 31.46 ----- Scl Coast To Coast Mdtrk
TS 4/18/2019E-02 550 31.11 F 77 2 4 6 8 8 OOP 13.20 D FELL FINAL TURN
TS 4/13/2019T-08 550 30.92 F 77 5 8 8 8 7 9 31.55 22.10 D Little Advance Late
TS 4/7/2019T-02 550 31.27 F 77 5 7 7 7 7 6 31.69 16.90 D Cruise Control On
TS 4/3/2019S-01 550 30.90 F 77 5 8 4 4 3 5 31.26 ----- Scl Strong Speed To Shw
TS 3/24/2019T-08 550 31.45 F 77 6 4 4 5 5 11 32.21 18.10 D Middle Of The Pack
TS 3/20/2019S-08 550 31.73 F 77 1 4 2 2 2 2.5 31.90 ----- Scl Early Speed To Place
TS 3/16/2019S-01 550 29.07 F 77 2 3 3 4 4 3.5 29.31 ----- Scl Faded To 4th
TS 3/10/2019T-02 550 30.79 F 77 2 5 6 7 8 9.5 31.45 9.50 D Gradual Decline
TS 3/6/2019E-01 550 30.76 F 77 5 6 5 6 6 15.5 31.85 13.40 D Varied Little
TS 3/1/2019E-01 550 31.35 F 77 6 7 6 7 7 9.5 32.01 15.90 D Not Much Effort
TS 2/23/2019T-04 550 30.46 F 77 4 4 4 4 4 5 30.81 10.50 D Even Pace To 4th
TS 2/20/2019E-04 550 31.32 F 78 7 2 4 3 3 13.5 32.26 12.90 D Settled To Show In
<< Race Replays 05/20 >>
S
M
T
W
T
F
S
1 2
3 4 5 6 7 8 9
10 11 12 13 14 15 16
17 18 19 20 21 22 23
24 25 26 27 28 29 30
31